Time;durP1;ratioP1;P1;durP2;ratioP2;P2;SDS_P1;SDS_P2;PMS_P1;PMS_P2;Temp;Humidity;BMP_temperature;BMP_pressure;BME280_temperature;BME280_humidity;BME280_pressure;Samples;Min_cycle;Max_cycle;Signal;HPM_P1;HPM_P2
2022/11/08 00:01:41;;;;;;;12.27;3.00;;;;;;;11.92;100.00;100791.19;5012410;28;20053;-70
2022/11/08 00:04:09;;;;;;;9.15;2.80;;;;;;;11.88;100.00;100779.97;5015512;28;20030;-70
2022/11/08 00:14:47;;;;;;;13.93;2.95;;;;;;;11.81;100.00;100788.22;5014829;28;20049;-70
2022/11/08 00:17:16;;;;;;;11.38;3.08;;;;;;;11.78;100.00;100785.19;5014718;28;20021;-70
2022/11/08 00:19:42;;;;;;;9.63;2.63;;;;;;;11.75;100.00;100780.22;5018536;28;20064;-70
2022/11/08 00:22:09;;;;;;;10.07;2.78;;;;;;;11.72;100.00;100788.81;5034370;28;20032;-70
2022/11/08 00:24:34;;;;;;;9.80;3.10;;;;;;;11.76;100.00;100781.84;5033169;28;20091;-70
2022/11/08 00:27:02;;;;;;;9.43;2.72;;;;;;;11.67;100.00;100778.66;5034623;28;20022;-70
2022/11/08 00:29:34;;;;;;;13.77;3.13;;;;;;;11.70;100.00;100773.59;5032973;28;20068;-70
2022/11/08 00:32:00;;;;;;;10.48;2.65;;;;;;;11.68;100.00;100774.91;5034480;28;20136;-69
2022/11/08 00:34:25;;;;;;;12.45;2.97;;;;;;;11.61;100.00;100774.16;5032085;28;20052;-70
2022/11/08 00:36:52;;;;;;;9.50;2.78;;;;;;;11.61;100.00;100768.75;5033592;28;20026;-69
2022/11/08 00:39:18;;;;;;;9.82;2.80;;;;;;;11.56;100.00;100771.34;5033279;28;20031;-70
2022/11/08 00:41:43;;;;;;;9.75;2.65;;;;;;;11.54;100.00;100766.16;5034165;28;20029;-70
2022/11/08 00:44:08;;;;;;;7.85;3.10;;;;;;;11.53;100.00;100762.63;5034372;28;20334;-70
2022/11/08 00:46:34;;;;;;;10.48;2.60;;;;;;;11.51;100.00;100764.72;5034038;28;20357;-70
2022/11/08 00:49:00;;;;;;;9.35;2.72;;;;;;;11.48;100.00;100765.19;5034245;28;20048;-70
2022/11/08 00:51:25;;;;;;;10.15;2.40;;;;;;;11.44;100.00;100764.00;5032711;28;20048;-69
2022/11/08 00:53:50;;;;;;;6.88;2.45;;;;;;;11.44;100.00;100761.31;5034238;28;20028;-70
2022/11/08 00:56:16;;;;;;;8.90;2.80;;;;;;;11.45;100.00;100762.16;5033487;28;20496;-70
2022/11/08 00:58:42;;;;;;;11.32;2.95;;;;;;;11.41;100.00;100747.41;5033376;28;20025;-70
2022/11/08 01:01:15;;;;;;;11.07;2.85;;;;;;;11.39;100.00;100754.94;5015881;28;20109;-70
2022/11/08 01:03:42;;;;;;;9.95;2.90;;;;;;;11.38;100.00;100745.16;5013925;28;20025;-70
2022/11/08 01:06:09;;;;;;;10.27;2.47;;;;;;;11.37;100.00;100744.34;5012872;28;20480;-70
2022/11/08 01:08:34;;;;;;;9.70;2.85;;;;;;;11.38;100.00;100753.28;5013939;28;20099;-70
2022/11/08 01:11:02;;;;;;;7.63;2.42;;;;;;;11.34;100.00;100751.03;5026530;28;20445;-70
2022/11/08 01:13:28;;;;;;;8.15;2.35;;;;;;;11.34;100.00;100751.03;5033518;28;20377;-70
2022/11/08 01:15:53;;;;;;;9.55;2.80;;;;;;;11.38;100.00;100751.41;5032184;28;20035;-70
2022/11/08 01:18:18;;;;;;;9.13;2.50;;;;;;;11.37;100.00;100748.91;5033620;28;20025;-70
2022/11/08 01:20:46;;;;;;;9.15;2.42;;;;;;;11.38;100.00;100745.97;5031211;28;20112;-70
2022/11/08 01:23:12;;;;;;;11.23;2.75;;;;;;;11.39;100.00;100744.13;5033324;28;20388;-70
2022/11/08 01:25:40;;;;;;;11.85;2.95;;;;;;;11.32;100.00;100745.03;5033217;28;20017;-70
2022/11/08 01:28:06;;;;;;;11.40;2.75;;;;;;;11.32;100.00;100739.63;5033437;28;20029;-70
2022/11/08 01:30:34;;;;;;;9.63;2.70;;;;;;;11.33;100.00;100741.25;5023358;28;20108;-70
2022/11/08 01:33:00;;;;;;;6.72;2.47;;;;;;;11.32;100.00;100734.22;5013699;28;20026;-70
2022/11/08 01:35:25;;;;;;;9.07;2.75;;;;;;;11.34;100.00;100744.81;5013643;28;20022;-70
2022/11/08 01:37:50;;;;;;;10.32;2.75;;;;;;;11.30;100.00;100728.19;5013385;28;20029;-70
2022/11/08 01:40:16;;;;;;;9.82;2.78;;;;;;;11.30;100.00;100730.06;5017963;28;20025;-70
2022/11/08 01:42:41;;;;;;;10.93;2.85;;;;;;;11.31;100.00;100731.75;5018339;28;20034;-70
2022/11/08 01:45:09;;;;;;;7.47;2.97;;;;;;;11.28;100.00;100722.19;5013457;28;20527;-70
2022/11/08 01:47:34;;;;;;;10.02;3.28;;;;;;;11.25;100.00;100719.13;5013614;28;20055;-70
2022/11/08 01:50:10;;;;;;;10.27;3.17;;;;;;;11.28;100.00;100705.94;5016249;28;20513;-70
2022/11/08 01:52:44;;;;;;;8.50;3.42;;;;;;;11.26;100.00;100699.94;5032799;28;20024;-70
2022/11/08 01:55:12;;;;;;;13.05;3.10;;;;;;;11.21;100.00;100699.78;5028137;28;20045;-69
2022/11/08 01:57:49;;;;;;;9.73;3.22;;;;;;;11.21;100.00;100693.56;5032651;28;20029;-70
2022/11/08 02:00:15;;;;;;;13.38;3.42;;;;;;;11.14;100.00;100689.06;5031830;28;20021;-69
2022/11/08 02:02:42;;;;;;;11.02;3.05;;;;;;;11.10;100.00;100692.47;5030258;28;20033;-70
2022/11/08 02:05:25;;;;;;;12.90;3.10;;;;;;;11.10;100.00;100689.78;5032907;28;20021;-70
2022/11/08 02:07:57;;;;;;;10.45;3.17;;;;;;;11.10;100.00;100682.47;5032646;28;20079;-70
2022/11/08 02:10:27;;;;;;;8.07;2.80;;;;;;;11.09;100.00;100674.56;5031856;28;20021;-70
2022/11/08 02:12:54;;;;;;;8.43;2.53;;;;;;;11.09;100.00;100675.38;5031494;28;20104;-70
2022/11/08 02:15:22;;;;;;;9.40;2.53;;;;;;;11.07;100.00;100674.81;5021047;28;20033;-70
2022/11/08 02:17:48;;;;;;;7.80;2.83;;;;;;;11.10;100.00;100673.53;5026758;28;20038;-70
2022/11/08 02:20:13;;;;;;;8.43;2.85;;;;;;;11.08;100.00;100673.75;5016218;28;20035;-69
2022/11/08 02:22:47;;;;;;;8.50;3.00;;;;;;;11.08;100.00;100662.06;5032482;28;20033;-70
2022/11/08 02:25:13;;;;;;;9.60;2.85;;;;;;;11.06;100.00;100661.50;5032728;28;20048;-70
2022/11/08 02:27:38;;;;;;;8.93;2.88;;;;;;;11.07;100.00;100650.44;5032363;28;20076;-69
2022/11/08 02:30:04;;;;;;;9.85;2.42;;;;;;;11.05;100.00;100651.72;5029459;28;20041;-70
2022/11/08 02:32:37;;;;;;;9.82;2.60;;;;;;;11.04;100.00;100653.59;5032462;28;20093;-70
2022/11/08 02:35:08;;;;;;;9.10;3.00;;;;;;;11.02;100.00;100644.06;5031759;28;20032;-70
2022/11/08 02:37:33;;;;;;;7.53;2.50;;;;;;;11.04;100.00;100633.84;5023325;28;20061;-69
2022/11/08 02:39:59;;;;;;;8.68;2.22;;;;;;;11.01;100.00;100643.25;5012821;28;20488;-69
2022/11/08 02:42:24;;;;;;;10.43;3.03;;;;;;;11.05;100.00;100635.47;5012700;28;20028;-70
2022/11/08 02:44:49;;;;;;;12.02;2.58;;;;;;;10.99;100.00;100623.69;5012492;28;20026;-70
2022/11/08 02:47:15;;;;;;;7.35;2.40;;;;;;;11.00;100.00;100625.34;5027910;28;20103;-70
2022/11/08 02:49:40;;;;;;;9.05;2.60;;;;;;;10.98;100.00;100619.34;5032200;28;20449;-70
2022/11/08 02:52:06;;;;;;;9.68;2.50;;;;;;;10.98;100.00;100616.63;5033653;28;20033;-70
2022/11/08 02:54:31;;;;;;;8.32;2.38;;;;;;;10.96;100.00;100613.31;5036111;28;20140;-70
2022/11/08 02:56:56;;;;;;;11.45;2.50;;;;;;;10.98;100.00;100611.22;5021342;28;20117;-70
2022/11/08 02:59:22;;;;;;;7.82;2.47;;;;;;;10.97;100.00;100601.44;5017640;28;20068;-70
2022/11/08 03:01:47;;;;;;;6.50;2.30;;;;;;;10.99;100.00;100592.03;5014019;28;20068;-69
2022/11/08 03:04:13;;;;;;;7.90;2.50;;;;;;;10.96;100.00;100592.50;5016143;28;20402;-69
2022/11/08 03:06:38;;;;;;;7.97;2.50;;;;;;;10.94;100.00;100596.50;5025232;28;20022;-70
2022/11/08 03:09:04;;;;;;;8.35;2.33;;;;;;;10.94;100.00;100586.47;5031552;28;20025;-70
2022/11/08 03:11:29;;;;;;;8.13;2.40;;;;;;;10.95;100.00;100573.78;5030797;28;20061;-70
2022/11/08 03:13:54;;;;;;;6.70;2.25;;;;;;;10.98;100.00;100576.84;5016120;28;20076;-70
2022/11/08 03:16:19;;;;;;;9.52;2.50;;;;;;;10.96;100.00;100572.69;5026203;28;20079;-70
2022/11/08 03:18:45;;;;;;;8.82;3.08;;;;;;;10.93;100.00;100573.19;5035557;28;20041;-69
2022/11/08 03:21:10;;;;;;;8.90;2.40;;;;;;;10.97;100.00;100568.94;5035612;28;20263;-70
2022/11/08 03:23:35;;;;;;;5.45;2.00;;;;;;;10.94;100.00;100572.94;5035529;28;20025;-69
2022/11/08 03:26:02;;;;;;;8.57;2.25;;;;;;;10.94;100.00;100574.84;5034685;28;20507;-70
2022/11/08 03:28:28;;;;;;;9.60;2.38;;;;;;;10.91;100.00;100569.88;5035812;28;20462;-70
2022/11/08 03:30:53;;;;;;;8.48;2.50;;;;;;;10.87;100.00;100568.69;5032216;28;20073;-70
2022/11/08 03:33:19;;;;;;;7.30;2.40;;;;;;;10.88;100.00;100552.22;5014619;28;20022;-70
2022/11/08 03:35:46;;;;;;;8.25;2.38;;;;;;;10.91;100.00;100556.34;5020350;28;20495;-70
2022/11/08 03:38:11;;;;;;;8.00;2.50;;;;;;;10.87;100.00;100545.19;5034092;28;20033;-70
2022/11/08 03:40:36;;;;;;;9.07;2.30;;;;;;;10.88;100.00;100535.16;5032741;28;20028;-70
2022/11/08 03:43:02;;;;;;;7.63;2.40;;;;;;;10.81;100.00;100538.00;5034237;28;20373;-70
2022/11/08 03:45:27;;;;;;;6.82;2.08;;;;;;;10.79;100.00;100523.84;5032097;28;20075;-70
2022/11/08 03:47:52;;;;;;;7.43;2.42;;;;;;;10.75;100.00;100514.56;5034285;28;20092;-70
2022/11/08 03:50:17;;;;;;;9.05;2.78;;;;;;;10.72;100.00;100513.16;5034329;28;20021;-70
2022/11/08 03:52:48;;;;;;;7.72;2.30;;;;;;;10.69;100.00;100519.03;5033153;28;20112;-70
2022/11/08 03:55:14;;;;;;;6.10;2.63;;;;;;;10.64;100.00;100497.25;5032773;28;20041;-70
2022/11/08 03:57:40;;;;;;;7.53;2.60;;;;;;;10.68;100.00;100509.25;5033684;28;20025;-70
2022/11/08 04:00:07;;;;;;;10.80;2.70;;;;;;;10.67;100.00;100499.50;5033710;28;20040;-70
2022/11/08 04:02:32;;;;;;;6.68;2.53;;;;;;;10.63;100.00;100499.16;5024025;28;20026;-69
2022/11/08 04:04:58;;;;;;;8.10;2.38;;;;;;;10.62;100.00;100500.19;5013221;28;20036;-70
2022/11/08 04:07:23;;;;;;;10.35;2.90;;;;;;;10.63;100.00;100499.16;5014093;28;20033;-70
2022/11/08 04:09:48;;;;;;;11.10;2.95;;;;;;;10.59;100.00;100491.72;5012526;28;20034;-70
2022/11/08 04:15:15;;;;;;;9.60;3.03;;;;;;;10.59;100.00;100470.09;5024048;28;20088;-70
2022/11/08 04:23:10;;;;;;;13.60;4.70;;;;;;;10.54;100.00;100470.78;5031445;28;20040;-70
2022/11/08 04:25:35;;;;;;;14.05;4.70;;;;;;;10.51;100.00;100460.44;5033649;28;20033;-70
2022/11/08 04:28:00;;;;;;;12.45;3.95;;;;;;;10.51;100.00;100457.72;5033631;28;20087;-70
2022/11/08 04:30:25;;;;;;;14.63;4.33;;;;;;;10.54;100.00;100456.44;4997033;28;1039461;-70
2022/11/08 04:32:51;;;;;;;11.02;4.00;;;;;;;10.51;100.00;100459.59;5033144;28;20092;-70
2022/11/08 04:35:16;;;;;;;12.20;4.03;;;;;;;10.52;100.00;100450.44;5022944;28;20025;-70
2022/11/08 04:37:41;;;;;;;10.93;3.78;;;;;;;10.51;100.00;100448.78;5016571;28;20416;-70
2022/11/08 04:40:07;;;;;;;12.00;3.80;;;;;;;10.51;100.00;100443.34;5014690;28;20105;-70
2022/11/08 04:42:33;;;;;;;10.20;3.20;;;;;;;10.50;100.00;100439.84;5027888;28;20112;-70
2022/11/08 04:44:58;;;;;;;10.65;3.60;;;;;;;10.53;100.00;100443.97;5034069;28;20060;-70
2022/11/08 04:47:23;;;;;;;10.45;3.40;;;;;;;10.56;100.00;100438.09;5034249;28;20025;-70
2022/11/08 04:49:48;;;;;;;10.25;3.17;;;;;;;10.54;100.00;100434.81;5033727;28;20083;-69
2022/11/08 04:52:14;;;;;;;9.38;3.42;;;;;;;10.52;100.00;100424.19;5033128;28;20336;-70
2022/11/08 04:54:43;;;;;;;9.25;2.97;;;;;;;10.52;100.00;100409.84;5033880;28;20027;-70
2022/11/08 04:57:09;;;;;;;6.75;3.05;;;;;;;10.54;100.00;100413.97;5033978;28;20018;-70
2022/11/08 04:59:34;;;;;;;7.72;3.10;;;;;;;10.52;100.00;100415.25;5032283;28;20032;-70
2022/11/08 05:01:59;;;;;;;8.57;2.90;;;;;;;10.55;100.00;100414.78;5011126;28;20472;-70
2022/11/08 05:04:25;;;;;;;14.77;3.50;;;;;;;10.46;100.00;100423.25;5012835;28;20159;-69
2022/11/08 05:06:50;;;;;;;8.38;2.95;;;;;;;10.46;100.00;100414.31;5013908;28;20033;-70
2022/11/08 05:09:15;;;;;;;10.20;2.85;;;;;;;10.42;100.00;100405.03;5014317;28;20028;-69
2022/11/08 05:11:40;;;;;;;8.02;2.72;;;;;;;10.42;100.00;100403.16;5023636;28;20044;-69
2022/11/08 05:14:06;;;;;;;8.63;2.95;;;;;;;10.38;100.00;100399.25;5034134;28;20138;-70
2022/11/08 05:16:31;;;;;;;7.93;2.50;;;;;;;10.35;100.00;100405.13;5032671;28;20029;-70
2022/11/08 05:18:56;;;;;;;8.00;2.78;;;;;;;10.34;100.00;100411.63;5033342;28;20021;-70
2022/11/08 05:24:09;;;;;;;8.07;2.78;;;;;;;10.33;100.00;100411.81;5032468;28;20060;-70
2022/11/08 05:26:36;;;;;;;8.63;2.80;;;;;;;10.32;100.00;100402.88;5033446;28;20033;-70
2022/11/08 05:29:01;;;;;;;8.88;3.95;;;;;;;10.34;100.00;100395.41;5032998;28;20037;-70
2022/11/08 05:31:27;;;;;;;8.68;3.67;;;;;;;10.34;100.00;100397.25;5032274;28;20037;-70
2022/11/08 05:33:52;;;;;;;5.00;2.63;;;;;;;10.31;100.00;100387.72;5032947;28;20021;-69
2022/11/08 05:36:17;;;;;;;30.45;18.50;;;;;;;10.30;100.00;100388.78;5033295;28;20032;-69
2022/11/08 05:38:43;;;;;;;22.70;12.23;;;;;;;10.35;100.00;100386.19;5031664;28;20674;-70
2022/11/08 05:41:12;;;;;;;10.27;3.67;;;;;;;10.32;100.00;100389.34;5031642;28;20357;-70
2022/11/08 05:43:38;;;;;;;9.82;3.40;;;;;;;10.30;100.00;100391.47;5029208;28;20033;-70
2022/11/08 05:46:04;;;;;;;9.50;2.95;;;;;;;10.33;100.00;100390.19;5032865;28;20472;-70
2022/11/08 05:48:30;;;;;;;12.55;2.60;;;;;;;10.34;100.00;100391.84;5033423;28;20033;-70
2022/11/08 05:50:55;;;;;;;10.75;3.00;;;;;;;10.27;100.00;100386.53;5030337;28;20025;-70
2022/11/08 05:53:20;;;;;;;16.77;7.88;;;;;;;10.31;100.00;100381.47;5032792;28;20029;-70
2022/11/08 05:55:47;;;;;;;6.82;3.65;;;;;;;10.28;100.00;100377.34;5033039;28;20114;-70
2022/11/08 05:58:12;;;;;;;7.95;3.10;;;;;;;10.24;100.00;100384.31;5032950;28;20053;-70
2022/11/08 06:00:37;;;;;;;9.05;2.90;;;;;;;10.23;100.00;100374.53;5028066;28;20499;-70
2022/11/08 06:03:04;;;;;;;7.40;2.95;;;;;;;10.26;100.00;100382.19;5030659;28;20025;-70
2022/11/08 06:05:30;;;;;;;7.25;2.80;;;;;;;10.22;100.00;100365.59;5032911;28;20022;-70
2022/11/08 06:07:56;;;;;;;7.32;3.10;;;;;;;10.23;100.00;100374.53;5032617;28;20021;-70
2022/11/08 06:10:21;;;;;;;9.27;3.50;;;;;;;10.21;100.00;100360.44;5032839;28;20498;-70
2022/11/08 06:12:47;;;;;;;9.48;3.30;;;;;;;10.21;100.00;100361.25;5031532;28;20044;-70
2022/11/08 06:15:12;;;;;;;9.80;3.55;;;;;;;10.19;100.00;100366.06;5032800;28;20034;-69
2022/11/08 06:17:37;;;;;;;7.90;3.08;;;;;;;10.19;100.00;100368.78;5032624;28;20097;-70
2022/11/08 06:20:03;;;;;;;9.77;3.58;;;;;;;10.23;100.00;100375.34;5031173;28;20445;-70
2022/11/08 06:22:33;;;;;;;11.20;3.13;;;;;;;10.18;100.00;100369.81;5031692;28;20032;-70
2022/11/08 06:24:59;;;;;;;10.15;2.97;;;;;;;10.16;100.00;100371.13;5030602;28;20441;-70
2022/11/08 06:27:25;;;;;;;9.35;3.35;;;;;;;10.14;100.00;100363.22;5032233;28;20040;-70
2022/11/08 06:29:50;;;;;;;7.05;2.72;;;;;;;10.16;100.00;100369.25;5031057;28;20048;-70
2022/11/08 06:32:15;;;;;;;7.93;3.35;;;;;;;10.16;100.00;100369.25;5031689;28;20049;-71
2022/11/08 06:34:41;;;;;;;7.47;3.15;;;;;;;10.13;100.00;100369.72;5032585;28;20591;-76
2022/11/08 06:37:07;;;;;;;7.88;3.22;;;;;;;10.10;100.00;100381.00;5032423;28;20025;-71
2022/11/08 06:39:35;;;;;;;9.48;3.47;;;;;;;10.11;100.00;100371.81;5017939;28;20053;-71
2022/11/08 06:42:00;;;;;;;8.13;3.00;;;;;;;10.10;100.00;100381.81;5032099;28;20029;-71
2022/11/08 06:44:25;;;;;;;9.23;3.15;;;;;;;10.08;100.00;100370.41;5032181;28;20364;-72
2022/11/08 06:46:54;;;;;;;7.03;3.00;;;;;;;10.10;100.00;100370.19;5016268;28;20037;-72
2022/11/08 06:49:20;;;;;;;8.60;3.03;;;;;;;10.08;100.00;100367.72;5011975;28;20100;-71
2022/11/08 06:51:45;;;;;;;9.55;2.78;;;;;;;10.11;100.00;100378.06;5027134;28;20120;-71
2022/11/08 06:54:10;;;;;;;7.35;3.10;;;;;;;10.14;100.00;100378.63;5012635;28;20060;-71
2022/11/08 06:56:35;;;;;;;7.90;2.90;;;;;;;10.13;100.00;100380.53;5012497;28;20080;-71
2022/11/08 06:59:01;;;;;;;7.28;2.97;;;;;;;10.16;100.00;100379.22;5010644;28;20054;-71
2022/11/08 07:01:26;;;;;;;8.32;2.80;;;;;;;10.15;100.00;100377.59;5029470;28;20075;-71
2022/11/08 07:03:51;;;;;;;4.85;2.60;;;;;;;10.17;100.00;100383.59;5032004;28;20025;-71
2022/11/08 07:06:17;;;;;;;6.95;3.00;;;;;;;10.15;100.00;100383.00;5032207;28;20079;-71
2022/11/08 07:08:42;;;;;;;8.00;2.88;;;;;;;10.16;100.00;100390.03;5020360;28;20036;-71
2022/11/08 07:11:08;;;;;;;6.10;2.75;;;;;;;10.17;100.00;100394.41;5026507;28;20377;-71
2022/11/08 07:13:34;;;;;;;6.18;2.60;;;;;;;10.17;100.00;100389.81;5032166;28;20061;-71
2022/11/08 07:16:01;;;;;;;7.32;2.90;;;;;;;10.18;100.00;100394.16;5032189;28;20068;-71
2022/11/08 07:18:27;;;;;;;8.27;2.80;;;;;;;10.20;100.00;100393.94;5031979;28;20438;-71
2022/11/08 07:20:56;;;;;;;5.57;2.80;;;;;;;10.20;100.00;100391.22;5031797;28;20025;-71
2022/11/08 07:23:21;;;;;;;5.45;2.33;;;;;;;10.25;100.00;100388.63;5031949;28;20107;-71
2022/11/08 07:25:47;;;;;;;9.90;4.50;;;;;;;10.23;100.00;100385.34;5031942;28;20068;-71
2022/11/08 07:28:15;;;;;;;13.15;5.30;;;;;;;10.17;100.00;100373.56;5030759;28;20029;-71
2022/11/08 07:30:40;;;;;;;8.23;2.75;;;;;;;10.23;100.00;100385.34;5029494;28;20077;-71
2022/11/08 07:33:06;;;;;;;8.57;3.20;;;;;;;10.32;100.00;100389.34;5031901;28;20060;-71
2022/11/08 07:35:32;;;;;;;8.88;3.38;;;;;;;10.34;100.00;100381.88;5031975;28;20108;-71
2022/11/08 07:37:57;;;;;;;6.07;2.65;;;;;;;10.30;100.00;100380.66;5031481;28;20022;-71
2022/11/08 07:40:23;;;;;;;7.00;2.70;;;;;;;10.33;100.00;100380.22;5035071;28;20040;-71
2022/11/08 07:42:48;;;;;;;5.97;2.47;;;;;;;10.33;100.00;100377.50;5035055;28;20021;-71
2022/11/08 07:45:13;;;;;;;6.13;2.40;;;;;;;10.37;100.00;100378.69;5035715;28;20033;-71
2022/11/08 07:47:39;;;;;;;6.57;2.25;;;;;;;10.39;100.00;100383.88;5035828;28;20120;-71
2022/11/08 07:50:05;;;;;;;3.28;2.15;;;;;;;10.42;100.00;100381.50;5033913;28;20186;-71
2022/11/08 07:52:30;;;;;;;4.45;2.38;;;;;;;10.48;100.00;100370.78;5031931;28;20026;-71
2022/11/08 07:54:55;;;;;;;7.15;2.30;;;;;;;10.56;100.00;100370.44;5014470;28;20033;-71
2022/11/08 07:57:21;;;;;;;4.13;2.28;;;;;;;10.62;100.00;100369.50;5015381;28;20025;-71
2022/11/08 07:59:46;;;;;;;4.00;2.10;;;;;;;10.70;100.00;100374.53;5015462;28;20018;-71
2022/11/08 08:02:12;;;;;;;5.03;2.20;;;;;;;10.75;100.00;100371.94;5012625;28;20036;-71
2022/11/08 08:04:38;;;;;;;4.45;2.22;;;;;;;10.84;100.00;100364.28;5015220;28;20069;-71
2022/11/08 08:07:04;;;;;;;4.05;2.10;;;;;;;10.92;100.00;100357.69;5013836;28;20095;-71
2022/11/08 08:09:29;;;;;;;4.82;1.95;;;;;;;11.01;100.00;100367.06;5013897;28;20366;-71
2022/11/08 08:11:54;;;;;;;6.53;2.03;;;;;;;11.09;100.00;100372.09;5014903;28;20034;-71
2022/11/08 08:14:20;;;;;;;2.45;1.58;;;;;;;11.16;100.00;100369.28;5013887;28;20385;-71
2022/11/08 08:16:45;;;;;;;3.65;1.80;;;;;;;11.22;100.00;100365.59;5015232;28;20034;-71
2022/11/08 08:19:10;;;;;;;3.53;1.85;;;;;;;11.26;100.00;100371.34;5014915;28;20100;-71
2022/11/08 08:21:36;;;;;;;3.95;1.92;;;;;;;11.30;100.00;100383.34;5015069;28;20484;-71
2022/11/08 08:24:01;;;;;;;5.53;1.75;;;;;;;11.39;96.07;100378.38;5015034;28;20026;-71
2022/11/08 08:26:27;;;;;;;3.13;1.70;;;;;;;11.42;94.67;100391.44;5014895;28;20032;-71
2022/11/08 08:28:52;;;;;;;6.90;1.92;;;;;;;11.44;98.70;100387.41;5014618;28;20412;-72
2022/11/08 08:31:18;;;;;;;4.45;1.73;;;;;;;11.49;93.98;100386.69;5014546;28;20457;-72
2022/11/08 08:33:43;;;;;;;4.68;1.70;;;;;;;11.54;92.34;100405.75;5013523;28;20045;-72
2022/11/08 08:36:08;;;;;;;2.22;1.50;;;;;;;11.56;92.73;100405.50;5014231;28;20133;-72
2022/11/08 08:38:34;;;;;;;2.15;1.60;;;;;;;11.62;91.67;100410.75;5013843;28;20076;-71
2022/11/08 08:41:01;;;;;;;7.95;1.85;;;;;;;11.64;92.57;100399.69;5014687;28;20076;-71
2022/11/08 08:43:26;;;;;;;4.07;1.88;;;;;;;11.68;91.87;100403.56;5014537;28;20438;-71
2022/11/08 08:45:53;;;;;;;3.92;1.77;;;;;;;11.74;91.64;100391.75;5014457;28;20030;-71
2022/11/08 08:48:19;;;;;;;5.28;2.00;;;;;;;11.76;92.37;100384.19;5014494;28;20068;-71
2022/11/08 08:50:45;;;;;;;3.15;1.80;;;;;;;11.81;90.97;100378.84;5014239;28;20477;-71
2022/11/08 08:53:10;;;;;;;2.58;1.70;;;;;;;11.82;90.91;100375.09;5014258;28;20026;-71
2022/11/08 08:55:38;;;;;;;5.38;1.70;;;;;;;11.88;87.80;100384.94;5014465;28;20021;-71
2022/11/08 08:58:03;;;;;;;2.60;1.50;;;;;;;11.91;88.04;100382.81;5012625;28;20438;-71
2022/11/08 09:00:28;;;;;;;4.20;1.77;;;;;;;11.92;91.24;100374.44;5011654;28;20040;-71
2022/11/08 09:02:54;;;;;;;3.45;1.60;;;;;;;11.97;87.52;100371.00;5013482;28;20036;-71
2022/11/08 09:05:19;;;;;;;5.00;1.88;;;;;;;11.99;88.11;100369.69;5014123;28;20026;-71
2022/11/08 09:07:44;;;;;;;4.38;2.10;;;;;;;12.03;88.35;100354.59;5012831;28;20084;-71
2022/11/08 09:10:10;;;;;;;4.47;1.95;;;;;;;12.07;89.68;100354.91;5014094;28;20025;-71
2022/11/08 09:12:37;;;;;;;5.22;2.33;;;;;;;12.09;86.69;100355.47;5014297;28;20033;-71
2022/11/08 09:15:03;;;;;;;4.82;1.90;;;;;;;12.14;87.68;100361.00;5013496;28;20026;-72
2022/11/08 09:17:29;;;;;;;4.75;1.85;;;;;;;12.18;84.80;100375.72;5013601;28;20017;-73
2022/11/08 09:19:54;;;;;;;3.03;1.60;;;;;;;12.19;87.58;100380.03;5013672;28;20362;-74
2022/11/08 09:22:20;;;;;;;4.72;1.70;;;;;;;12.22;89.75;100365.19;5013222;28;20022;-72
2022/11/08 09:24:45;;;;;;;4.72;2.00;;;;;;;12.24;87.90;100360.31;5013567;28;20037;-72
2022/11/08 09:27:11;;;;;;;7.03;1.90;;;;;;;12.25;87.39;100355.72;5013541;28;20021;-71
2022/11/08 09:29:36;;;;;;;1.98;1.70;;;;;;;12.27;87.59;100353.56;5028778;28;20037;-71
2022/11/08 09:32:02;;;;;;;7.35;1.90;;;;;;;12.29;86.54;100351.44;5013793;28;20045;-72
2022/11/08 09:34:27;;;;;;;4.30;1.92;;;;;;;12.32;85.30;100359.06;5019930;28;20361;-72
2022/11/08 09:36:53;;;;;;;5.25;2.58;;;;;;;12.34;84.91;100373.22;5033262;28;20475;-71
2022/11/08 09:39:19;;;;;;;4.65;1.80;;;;;;;12.35;84.81;100366.72;5033286;28;20039;-72
2022/11/08 09:41:52;;;;;;;2.67;1.70;;;;;;;12.39;86.43;100368.69;5033249;28;20033;-70
2022/11/08 09:44:24;;;;;;;2.15;1.75;;;;;;;12.45;86.47;100361.44;5024918;28;20082;-74
2022/11/08 09:46:54;;;;;;;4.15;1.95;;;;;;;12.50;84.50;100350.66;5013690;28;20060;-72
2022/11/08 09:49:22;;;;;;;4.25;2.10;;;;;;;12.54;83.87;100345.56;5017409;28;20113;-72
2022/11/08 09:51:48;;;;;;;5.68;1.85;;;;;;;12.62;85.07;100366.84;5013666;28;20030;-70
2022/11/08 09:54:26;;;;;;;6.60;1.98;;;;;;;12.68;83.55;100381.28;5013129;28;20029;-73
2022/11/08 09:56:53;;;;;;;4.90;1.92;;;;;;;12.69;81.22;100374.81;5013888;28;20453;-73
2022/11/08 09:59:41;;;;;;;3.85;1.90;;;;;;;12.73;86.50;100384.09;5012619;28;20084;-75
2022/11/08 10:02:15;;;;;;;2.92;1.95;;;;;;;12.80;83.17;100373.03;5009771;28;20393;-72
2022/11/08 10:04:40;;;;;;;5.78;1.92;;;;;;;12.84;80.88;100375.00;5013014;28;20112;-75
2022/11/08 10:07:33;;;;;;;2.92;1.70;;;;;;;12.93;81.32;100372.69;5013061;28;20105;-73
2022/11/08 10:10:15;;;;;;;7.25;1.85;;;;;;;13.00;81.25;100383.34;5012508;28;20041;-75
2022/11/08 10:13:00;;;;;;;4.63;1.73;;;;;;;13.04;80.83;100387.19;5020633;28;20355;-72
2022/11/08 10:16:03;;;;;;;4.38;1.80;;;;;;;13.10;82.60;100387.03;5015833;28;20040;-72
2022/11/08 10:18:40;;;;;;;4.28;1.95;;;;;;;13.17;76.98;100389.53;5012706;28;20026;-72
2022/11/08 10:21:27;;;;;;;3.20;1.70;;;;;;;13.22;80.66;100399.66;5012321;28;20026;-70
2022/11/08 10:24:25;;;;;;;4.20;1.88;;;;;;;13.26;79.89;100398.06;5013553;28;20058;-72
2022/11/08 10:26:54;;;;;;;6.22;1.65;;;;;;;13.28;78.17;100396.72;5018753;28;20040;-70
2022/11/08 10:29:22;;;;;;;3.97;1.77;;;;;;;13.32;75.76;100401.66;5011357;28;20041;-70
2022/11/08 10:31:55;;;;;;;6.10;2.00;;;;;;;13.31;76.28;100400.84;5012866;28;20119;-70
2022/11/08 10:34:24;;;;;;;7.32;2.10;;;;;;;13.34;76.50;100399.53;5020801;28;20029;-70
2022/11/08 10:36:57;;;;;;;8.95;2.10;;;;;;;13.36;76.09;100402.81;5032459;28;20021;-70
2022/11/08 10:39:26;;;;;;;7.78;1.90;;;;;;;13.37;75.74;100404.47;5031859;28;20021;-70
2022/11/08 10:42:06;;;;;;;8.93;2.33;;;;;;;13.37;77.58;100399.84;5031134;28;20044;-70
2022/11/08 10:44:33;;;;;;;6.72;1.92;;;;;;;13.38;75.54;100414.28;5032191;28;20057;-70
2022/11/08 10:47:02;;;;;;;4.50;1.90;;;;;;;13.41;77.20;100408.31;5018563;28;20026;-70
2022/11/08 10:49:36;;;;;;;7.28;2.05;;;;;;;13.43;76.58;100406.16;5012748;28;20040;-71
2022/11/08 10:52:37;;;;;;;5.97;1.83;;;;;;;13.49;76.39;100404.34;5012079;28;20029;-72
2022/11/08 10:55:07;;;;;;;7.55;1.98;;;;;;;13.51;78.19;100402.97;5006853;28;20049;-73
2022/11/08 10:57:41;;;;;;;5.07;2.00;;;;;;;13.56;75.04;100397.59;5020620;28;20028;-71
2022/11/08 11:00:18;;;;;;;3.47;1.77;;;;;;;13.56;76.62;100389.44;5024414;28;20022;-72
2022/11/08 11:02:51;;;;;;;4.60;2.00;;;;;;;13.58;75.49;100406.31;5024715;28;20029;-71
2022/11/08 11:05:16;;;;;;;5.47;1.70;;;;;;;13.62;74.01;100393.06;5018513;28;20037;-70
2022/11/08 11:07:59;;;;;;;6.93;1.83;;;;;;;13.63;75.12;100381.94;5020422;28;20366;-71
2022/11/08 11:10:33;;;;;;;4.95;2.05;;;;;;;13.65;75.86;100379.75;5026119;28;20060;-70
2022/11/08 11:13:01;;;;;;;3.47;1.67;;;;;;;13.63;75.65;100376.47;5031659;28;20356;-73
2022/11/08 11:15:36;;;;;;;4.15;1.88;;;;;;;13.65;73.89;100355.28;5034014;28;20046;-72
2022/11/08 11:18:02;;;;;;;2.95;1.88;;;;;;;13.67;74.55;100352.31;5014375;28;20022;-71
2022/11/08 11:20:28;;;;;;;4.30;1.83;;;;;;;13.68;74.17;100366.72;5015482;28;20028;-71
2022/11/08 11:22:53;;;;;;;5.93;2.08;;;;;;;13.70;75.86;100353.69;5015282;28;20026;-72
2022/11/08 11:25:21;;;;;;;5.30;1.83;;;;;;;13.72;74.68;100354.25;5015980;28;20446;-72
2022/11/08 11:27:58;;;;;;;6.57;1.92;;;;;;;13.74;76.19;100352.09;5021950;28;20034;-71
2022/11/08 11:30:30;;;;;;;4.10;1.90;;;;;;;13.76;74.99;100330.91;5015722;28;20469;-72
2022/11/08 11:33:01;;;;;;;4.28;1.63;;;;;;;13.80;76.13;100332.03;5015549;28;20049;-72
2022/11/08 11:35:33;;;;;;;2.47;1.60;;;;;;;13.83;74.18;100336.97;5031665;28;20063;-71
2022/11/08 11:38:02;;;;;;;7.80;2.00;;;;;;;13.87;74.52;100348.13;5034183;28;20354;-71